createdAt,value
2022-09-28T00:02:15.132Z,100.00
2022-09-28T00:04:50.407Z,100.00
2022-09-28T00:07:20.400Z,100.00
2022-09-28T00:09:58.465Z,100.00
2022-09-28T00:12:34.285Z,100.00
2022-09-28T00:15:07.087Z,100.00
2022-09-28T00:17:48.290Z,100.00
2022-09-28T00:20:24.127Z,100.00
2022-09-28T00:23:05.201Z,100.00
2022-09-28T00:25:42.718Z,100.00
2022-09-28T00:28:28.893Z,100.00
2022-09-28T00:31:09.613Z,100.00
2022-09-28T00:33:48.358Z,100.00
2022-09-28T00:36:41.092Z,100.00
2022-09-28T00:39:14.957Z,100.00
2022-09-28T00:41:52.623Z,100.00
2022-09-28T00:44:39.957Z,100.00
2022-09-28T00:47:52.072Z,100.00
2022-09-28T00:50:32.371Z,100.00
2022-09-28T00:53:32.787Z,100.00
2022-09-28T00:56:14.416Z,100.00
2022-09-28T00:58:53.192Z,100.00
2022-09-28T01:01:26.813Z,100.00
2022-09-28T01:03:59.851Z,100.00
2022-09-28T01:06:42.333Z,100.00
2022-09-28T01:09:16.381Z,100.00
2022-09-28T01:11:55.031Z,100.00
2022-09-28T01:14:37.175Z,100.00
2022-09-28T01:17:18.580Z,100.00
2022-09-28T01:20:31.379Z,100.00
2022-09-28T01:23:21.455Z,100.00
2022-09-28T01:26:50.901Z,100.00
2022-09-28T01:29:44.665Z,100.00
2022-09-28T01:32:36.805Z,100.00
2022-09-28T01:35:35.799Z,100.00
2022-09-28T01:38:19.924Z,100.00
2022-09-28T01:41:03.884Z,100.00
2022-09-28T01:43:40.557Z,100.00
2022-09-28T01:46:26.593Z,100.00
2022-09-28T01:49:28.440Z,100.00
2022-09-28T01:52:14.564Z,100.00
2022-09-28T01:54:54.959Z,100.00
2022-09-28T01:57:36.470Z,100.00
2022-09-28T02:00:21.849Z,100.00
2022-09-28T02:06:03.454Z,100.00
2022-09-28T02:08:50.666Z,100.00
2022-09-28T02:11:28.707Z,100.00
2022-09-28T02:14:12.264Z,100.00
2022-09-28T02:16:56.261Z,100.00
2022-09-28T02:19:35.695Z,100.00
2022-09-28T02:22:44.828Z,100.00
2022-09-28T02:25:38.884Z,100.00
2022-09-28T02:28:18.646Z,100.00
2022-09-28T02:30:55.720Z,100.00
2022-09-28T02:33:39.997Z,100.00
2022-09-28T02:36:18.512Z,100.00
2022-09-28T02:38:53.132Z,100.00
2022-09-28T02:41:43.291Z,100.00
2022-09-28T02:44:39.287Z,100.00
2022-09-28T02:47:22.660Z,100.00
2022-09-28T02:50:25.580Z,100.00
2022-09-28T02:53:26.360Z,100.00
2022-09-28T02:56:35.320Z,100.00
2022-09-28T02:59:13.001Z,100.00
2022-09-28T03:01:51.747Z,100.00
2022-09-28T03:04:37.734Z,100.00
2022-09-28T03:07:50.684Z,100.00
2022-09-28T03:10:47.421Z,100.00
2022-09-28T03:13:25.739Z,100.00
2022-09-28T03:16:17.419Z,100.00
2022-09-28T03:18:55.008Z,100.00
2022-09-28T03:21:30.320Z,100.00
2022-09-28T03:24:11.342Z,100.00
2022-09-28T03:26:51.662Z,100.00
2022-09-28T03:29:27.849Z,100.00
2022-09-28T03:32:14.529Z,100.00
2022-09-28T03:34:50.391Z,100.00
2022-09-28T03:37:26.859Z,100.00
2022-09-28T03:40:02.193Z,100.00
2022-09-28T03:42:49.141Z,100.00
2022-09-28T03:45:19.218Z,100.00
2022-09-28T03:48:03.301Z,100.00
2022-09-28T03:50:45.271Z,100.00
2022-09-28T03:53:20.635Z,100.00
2022-09-28T03:55:53.829Z,100.00
2022-09-28T03:58:38.287Z,100.00
2022-09-28T04:01:16.425Z,100.00
2022-09-28T04:04:04.176Z,100.00
2022-09-28T04:06:34.069Z,100.00
2022-09-28T04:09:09.851Z,100.00
2022-09-28T04:12:02.646Z,100.00
2022-09-28T04:14:47.852Z,100.00
2022-09-28T04:17:35.474Z,100.00
2022-09-28T04:20:16.033Z,100.00
2022-09-28T04:23:18.242Z,100.00
2022-09-28T04:25:55.285Z,100.00
2022-09-28T04:28:41.445Z,100.00
2022-09-28T04:31:16.764Z,100.00
2022-09-28T04:33:53.774Z,100.00
2022-09-28T04:36:27.827Z,100.00
2022-09-28T04:39:00.606Z,100.00
2022-09-28T04:41:37.528Z,100.00
2022-09-28T04:44:19.171Z,100.00
2022-09-28T04:46:55.794Z,100.00
2022-09-28T04:49:39.573Z,100.00
2022-09-28T04:52:43.750Z,100.00
2022-09-28T04:55:20.753Z,100.00
2022-09-28T04:57:54.159Z,100.00
2022-09-28T05:00:24.161Z,100.00
2022-09-28T05:03:15.234Z,100.00
2022-09-28T05:06:15.566Z,100.00
2022-09-28T05:09:05.391Z,100.00
2022-09-28T05:11:42.148Z,100.00
2022-09-28T05:14:30.251Z,100.00
2022-09-28T05:17:07.527Z,100.00
2022-09-28T05:20:07.837Z,100.00
2022-09-28T05:22:45.666Z,100.00
2022-09-28T05:25:21.525Z,100.00
2022-09-28T05:28:12.358Z,100.00
2022-09-28T05:31:07.926Z,100.00
2022-09-28T05:34:09.765Z,100.00
2022-09-28T05:36:45.897Z,100.00
2022-09-28T05:39:34.675Z,100.00
2022-09-28T05:42:23.787Z,100.00
2022-09-28T05:44:59.217Z,100.00
2022-09-28T05:47:46.294Z,100.00
2022-09-28T05:50:26.921Z,100.00
2022-09-28T05:53:05.953Z,100.00
2022-09-28T05:55:39.992Z,100.00
2022-09-28T05:58:10.312Z,100.00
2022-09-28T06:01:00.667Z,100.00
2022-09-28T06:03:32.238Z,100.00
2022-09-28T06:06:14.955Z,100.00
2022-09-28T06:09:00.774Z,100.00
2022-09-28T06:11:42.847Z,100.00
2022-09-28T06:14:24.573Z,100.00
2022-09-28T06:17:08.515Z,100.00
2022-09-28T06:19:41.468Z,100.00
2022-09-28T06:22:54.008Z,100.00
2022-09-28T06:25:33.140Z,100.00
2022-09-28T06:28:21.344Z,100.00
2022-09-28T06:30:54.189Z,100.00
2022-09-28T06:33:27.678Z,100.00
2022-09-28T06:36:22.647Z,100.00
2022-09-28T06:38:55.557Z,100.00
2022-09-28T06:41:40.048Z,100.00
2022-09-28T06:44:20.991Z,100.00
2022-09-28T06:46:59.699Z,100.00
2022-09-28T06:50:07.300Z,100.00
2022-09-28T06:53:07.514Z,100.00
2022-09-28T06:56:15.151Z,99.70
2022-09-28T06:58:51.376Z,94.49
2022-09-28T07:01:18.519Z,91.78
2022-09-28T07:04:13.263Z,95.41
2022-09-28T07:07:10.163Z,95.53
2022-09-28T07:10:06.157Z,89.44
2022-09-28T07:13:04.320Z,89.57
2022-09-28T07:15:52.441Z,92.34
2022-09-28T07:18:25.965Z,95.64
2022-09-28T07:21:28.844Z,96.20
2022-09-28T07:24:10.157Z,88.43
2022-09-28T07:26:58.971Z,86.73
2022-09-28T07:30:05.825Z,87.52
2022-09-28T07:33:10.406Z,83.71
2022-09-28T07:36:07.338Z,84.46
2022-09-28T07:38:44.209Z,82.05
2022-09-28T07:41:18.202Z,79.56
2022-09-28T07:43:55.557Z,83.96
2022-09-28T07:46:36.801Z,84.53
2022-09-28T07:49:28.733Z,82.59
2022-09-28T07:52:30.969Z,80.02
2022-09-28T07:55:17.408Z,81.14
2022-09-28T07:58:12.833Z,77.65
2022-09-28T08:01:23.729Z,83.53
2022-09-28T08:04:02.152Z,79.57
2022-09-28T08:06:44.081Z,83.12
2022-09-28T08:09:21.947Z,81.40
2022-09-28T08:12:41.458Z,80.00
2022-09-28T08:15:40.141Z,78.18
2022-09-28T08:18:33.580Z,77.58
2022-09-28T08:21:30.914Z,81.01
2022-09-28T08:24:03.332Z,82.19
2022-09-28T08:26:38.749Z,83.50
2022-09-28T08:29:22.059Z,86.13
2022-09-28T08:32:03.184Z,83.14
2022-09-28T08:35:01.322Z,81.80
2022-09-28T08:38:06.049Z,85.37
2022-09-28T08:41:26.771Z,84.50
2022-09-28T08:48:32.091Z,87.23
2022-09-28T08:52:30.003Z,88.53
2022-09-28T08:55:32.299Z,90.66
2022-09-28T08:58:17.642Z,84.75
2022-09-28T09:00:54.450Z,87.71
2022-09-28T09:03:44.279Z,83.51
2022-09-28T09:07:03.830Z,82.15
2022-09-28T09:10:04.537Z,86.95
2022-09-28T09:13:00.759Z,87.54
2022-09-28T09:15:43.254Z,86.34
2022-09-28T09:19:09.662Z,83.62
2022-09-28T09:22:20.784Z,85.60
2022-09-28T09:25:11.470Z,89.78
2022-09-28T09:28:03.079Z,87.32
2022-09-28T09:31:17.681Z,86.70
2022-09-28T09:34:43.127Z,86.75
2022-09-28T09:37:43.933Z,86.11
2022-09-28T09:40:45.623Z,86.83
2022-09-28T09:44:06.948Z,89.64
2022-09-28T09:47:03.907Z,91.29
2022-09-28T09:50:15.140Z,89.27
2022-09-28T09:52:50.998Z,86.09
2022-09-28T09:55:39.517Z,84.57
2022-09-28T09:58:56.246Z,88.53
2022-09-28T10:01:52.155Z,85.36
2022-09-28T10:04:47.075Z,85.96
2022-09-28T10:07:32.639Z,83.53
2022-09-28T10:10:15.939Z,83.00
2022-09-28T10:12:59.679Z,83.56
2022-09-28T10:15:41.382Z,81.98
2022-09-28T10:21:38.558Z,81.42
2022-09-28T10:24:42.958Z,78.89
2022-09-28T10:27:22.868Z,77.30
2022-09-28T10:30:31.362Z,77.18
2022-09-28T10:33:36.580Z,82.39
2022-09-28T10:36:14.748Z,85.70
2022-09-28T10:38:50.867Z,83.40
2022-09-28T10:41:32.089Z,80.97
2022-09-28T10:44:25.041Z,81.13
2022-09-28T10:47:17.135Z,79.71
2022-09-28T10:49:58.509Z,80.44
2022-09-28T10:52:32.785Z,81.76
2022-09-28T10:55:34.553Z,79.26
2022-09-28T10:58:28.244Z,79.77
2022-09-28T11:01:12.007Z,81.85
2022-09-28T11:03:59.926Z,79.49
2022-09-28T11:06:44.297Z,79.39
2022-09-28T11:09:38.543Z,78.28
2022-09-28T11:12:29.844Z,78.08
2022-09-28T11:15:05.032Z,79.29
2022-09-28T11:17:47.187Z,80.87
2022-09-28T11:20:57.035Z,76.69
2022-09-28T11:24:01.483Z,78.57
2022-09-28T11:26:43.552Z,76.39
2022-09-28T11:29:44.777Z,77.54
2022-09-28T11:32:53.557Z,79.52
2022-09-28T11:35:50.758Z,76.43
2022-09-28T11:38:57.106Z,77.77
2022-09-28T11:41:58.826Z,77.76
2022-09-28T11:44:44.983Z,77.42
2022-09-28T11:47:53.894Z,77.95
2022-09-28T11:50:47.536Z,76.25
2022-09-28T11:53:40.908Z,75.30
2022-09-28T11:56:58.638Z,75.43
2022-09-28T11:59:39.075Z,76.64
2022-09-28T12:02:39.833Z,77.14
2022-09-28T12:05:46.504Z,80.31
2022-09-28T12:08:32.835Z,75.47
2022-09-28T12:11:15.696Z,72.81
2022-09-28T12:14:15.142Z,73.19
2022-09-28T12:17:07.650Z,72.62
2022-09-28T12:20:03.162Z,72.71
2022-09-28T12:23:14.463Z,73.42
2022-09-28T12:25:59.797Z,71.84
2022-09-28T12:28:40.430Z,74.43
2022-09-28T12:31:21.946Z,76.41
2022-09-28T12:34:02.664Z,74.67
2022-09-28T12:36:44.796Z,72.71
2022-09-28T12:40:02.948Z,67.22
2022-09-28T12:43:14.962Z,74.88
2022-09-28T12:46:17.502Z,70.94
2022-09-28T12:52:43.804Z,73.68
2022-09-28T12:55:26.202Z,69.68
2022-09-28T12:58:04.211Z,71.75
2022-09-28T13:04:13.349Z,68.68
2022-09-28T13:10:46.399Z,69.37
2022-09-28T13:14:06.641Z,67.77
2022-09-28T13:16:59.747Z,69.95
2022-09-28T13:20:03.712Z,68.18
2022-09-28T13:23:07.529Z,68.08
2022-09-28T13:25:49.860Z,69.27
2022-09-28T13:28:29.567Z,69.18
2022-09-28T13:31:09.982Z,66.82
2022-09-28T13:34:05.019Z,61.85
2022-09-28T13:36:35.525Z,63.45
2022-09-28T13:39:37.657Z,62.86
2022-09-28T13:45:17.480Z,67.78
2022-09-28T13:48:15.506Z,64.43
2022-09-28T13:51:17.594Z,65.27
2022-09-28T13:54:16.023Z,63.89
2022-09-28T13:57:26.134Z,64.32
2022-09-28T14:00:31.866Z,63.35
2022-09-28T14:09:11.040Z,62.45
2022-09-28T14:15:49.353Z,65.98
2022-09-28T14:18:40.802Z,64.68
2022-09-28T14:22:02.409Z,61.32
2022-09-28T14:24:55.911Z,64.06
2022-09-28T14:28:01.311Z,61.41
2022-09-28T14:30:49.688Z,64.34
2022-09-28T14:33:25.721Z,65.40
2022-09-28T14:39:59.627Z,60.37
2022-09-28T14:47:13.290Z,62.41
2022-09-28T14:50:27.173Z,62.08
2022-09-28T14:53:24.748Z,62.90
2022-09-28T14:56:00.615Z,62.86
2022-09-28T14:58:42.740Z,65.63
2022-09-28T15:01:27.120Z,65.00
2022-09-28T15:04:10.634Z,65.04
2022-09-28T15:06:50.313Z,65.55
2022-09-28T15:09:30.533Z,66.02
2022-09-28T15:12:27.462Z,66.15
2022-09-28T15:15:12.128Z,69.18
2022-09-28T15:20:44.118Z,67.45
2022-09-28T15:23:44.154Z,70.18
2022-09-28T15:26:34.582Z,71.06
2022-09-28T15:29:14.495Z,70.17
2022-09-28T15:31:54.336Z,69.88
2022-09-28T15:35:20.147Z,71.53
2022-09-28T15:37:58.737Z,71.14
2022-09-28T15:40:28.506Z,71.18
2022-09-28T15:43:13.042Z,73.83
2022-09-28T15:45:56.791Z,73.15
2022-09-28T15:48:42.026Z,74.40
2022-09-28T15:51:12.773Z,73.46
2022-09-28T15:53:56.272Z,74.55
2022-09-28T15:56:27.706Z,74.71
2022-09-28T15:59:32.565Z,76.12
2022-09-28T16:02:12.334Z,77.23
2022-09-28T16:04:48.291Z,77.48
2022-09-28T16:07:55.227Z,78.84
2022-09-28T16:10:39.541Z,79.35
2022-09-28T16:13:25.874Z,81.59
2022-09-28T16:16:00.169Z,81.17
2022-09-28T16:18:33.155Z,82.41
2022-09-28T16:21:34.594Z,83.39
2022-09-28T16:24:06.493Z,83.70
2022-09-28T16:26:41.678Z,81.98
2022-09-28T16:29:40.988Z,84.32
2022-09-28T16:32:29.724Z,84.41
2022-09-28T16:35:16.024Z,84.08
2022-09-28T16:37:50.588Z,83.21
2022-09-28T16:40:23.878Z,81.49
2022-09-28T16:42:58.722Z,84.32
2022-09-28T16:45:34.252Z,84.34
2022-09-28T16:48:03.101Z,84.66
2022-09-28T16:50:30.317Z,84.72
2022-09-28T16:53:44.920Z,85.11
2022-09-28T16:56:18.564Z,85.21
2022-09-28T16:58:50.537Z,85.25
2022-09-28T17:01:20.154Z,85.92
2022-09-28T17:03:57.947Z,87.29
2022-09-28T17:06:26.074Z,87.66
2022-09-28T17:08:59.058Z,87.50
2022-09-28T17:11:34.672Z,89.38
2022-09-28T17:14:04.586Z,89.52
2022-09-28T17:19:34.664Z,87.86
2022-09-28T17:22:01.725Z,87.74
2022-09-28T17:24:35.315Z,87.67
2022-09-28T17:27:09.955Z,86.83
2022-09-28T17:29:39.804Z,86.33
2022-09-28T17:32:19.041Z,86.62
2022-09-28T17:35:22.630Z,86.70
2022-09-28T17:37:50.089Z,86.00
2022-09-28T17:40:25.849Z,86.48
2022-09-28T17:42:57.497Z,85.74
2022-09-28T17:45:39.429Z,86.73
2022-09-28T17:48:21.930Z,85.92
2022-09-28T17:53:41.551Z,86.15
2022-09-28T17:56:22.564Z,85.27
2022-09-28T17:58:54.804Z,87.63
2022-09-28T18:01:27.302Z,88.90
2022-09-28T18:03:57.578Z,90.69
2022-09-28T18:06:27.416Z,94.32
2022-09-28T18:08:54.415Z,99.52
2022-09-28T18:11:21.684Z,100.00
2022-09-28T18:13:53.486Z,100.00
2022-09-28T18:16:29.803Z,100.00
2022-09-28T18:19:03.677Z,100.00
2022-09-28T18:21:35.931Z,100.00
2022-09-28T18:24:06.682Z,100.00
2022-09-28T18:26:43.299Z,100.00
2022-09-28T18:29:24.490Z,100.00
2022-09-28T18:32:06.760Z,100.00
2022-09-28T18:34:44.541Z,100.00
2022-09-28T18:37:29.195Z,100.00
2022-09-28T18:39:58.152Z,100.00
2022-09-28T18:42:39.785Z,100.00
2022-09-28T18:45:19.595Z,100.00
2022-09-28T18:47:49.104Z,100.00
2022-09-28T18:50:16.136Z,100.00
2022-09-28T18:52:47.582Z,100.00
2022-09-28T18:55:21.637Z,100.00
2022-09-28T18:57:56.511Z,100.00
2022-09-28T19:00:31.442Z,100.00
2022-09-28T19:03:00.473Z,100.00
2022-09-28T19:05:31.608Z,100.00
2022-09-28T19:08:01.259Z,100.00
2022-09-28T19:10:34.275Z,100.00
2022-09-28T19:13:13.316Z,100.00
2022-09-28T19:15:46.913Z,100.00
2022-09-28T19:18:20.770Z,100.00
2022-09-28T19:20:50.909Z,100.00
2022-09-28T19:23:49.796Z,100.00
2022-09-28T19:26:28.321Z,100.00
2022-09-28T19:29:02.895Z,100.00
2022-09-28T19:31:42.819Z,100.00
2022-09-28T19:34:26.953Z,100.00
2022-09-28T19:37:08.088Z,100.00
2022-09-28T19:39:44.888Z,100.00
2022-09-28T19:42:23.331Z,100.00
2022-09-28T19:44:56.559Z,100.00
2022-09-28T19:47:23.544Z,100.00
2022-09-28T19:49:56.596Z,100.00
2022-09-28T19:52:37.021Z,100.00
2022-09-28T19:55:18.300Z,100.00
2022-09-28T19:57:57.073Z,100.00
2022-09-28T20:00:32.507Z,100.00
2022-09-28T20:03:08.039Z,100.00
2022-09-28T20:08:34.252Z,100.00
2022-09-28T20:11:01.740Z,100.00
2022-09-28T20:13:39.057Z,100.00
2022-09-28T20:16:19.306Z,100.00
2022-09-28T20:18:51.575Z,100.00
2022-09-28T20:21:25.694Z,100.00
2022-09-28T20:23:57.641Z,100.00
2022-09-28T20:26:28.082Z,100.00
2022-09-28T20:28:58.348Z,100.00
2022-09-28T20:31:45.566Z,100.00
2022-09-28T20:34:15.620Z,100.00
2022-09-28T20:39:47.020Z,100.00
2022-09-28T20:42:22.598Z,100.00
2022-09-28T20:44:51.858Z,100.00
2022-09-28T20:47:24.393Z,100.00
2022-09-28T20:50:01.921Z,100.00
2022-09-28T20:52:43.325Z,100.00
2022-09-28T20:55:12.820Z,100.00
2022-09-28T20:57:39.746Z,100.00
2022-09-28T21:00:15.780Z,100.00
2022-09-28T21:02:51.782Z,100.00
2022-09-28T21:05:27.319Z,100.00
2022-09-28T21:08:05.371Z,100.00
2022-09-28T21:10:37.708Z,100.00
2022-09-28T21:13:15.315Z,100.00
2022-09-28T21:15:44.970Z,100.00
2022-09-28T21:18:15.676Z,100.00
2022-09-28T21:20:53.478Z,100.00
2022-09-28T21:23:30.507Z,100.00
2022-09-28T21:26:10.814Z,100.00
2022-09-28T21:28:43.206Z,100.00
2022-09-28T21:31:22.690Z,100.00
2022-09-28T21:34:03.398Z,100.00
2022-09-28T21:36:33.899Z,100.00
2022-09-28T21:39:10.727Z,100.00
2022-09-28T21:41:40.617Z,100.00
2022-09-28T21:44:08.705Z,100.00
2022-09-28T21:46:39.155Z,100.00
2022-09-28T21:49:16.888Z,100.00
2022-09-28T21:51:55.012Z,100.00
2022-09-28T21:54:27.709Z,100.00
2022-09-28T21:56:55.707Z,100.00
2022-09-28T21:59:31.345Z,100.00
2022-09-28T22:02:01.126Z,100.00
2022-09-28T22:04:33.713Z,100.00
2022-09-28T22:07:01.139Z,100.00
2022-09-28T22:09:30.397Z,100.00
2022-09-28T22:12:01.256Z,100.00
2022-09-28T22:14:29.904Z,100.00
2022-09-28T22:17:04.508Z,100.00
2022-09-28T22:19:35.094Z,100.00
2022-09-28T22:22:07.648Z,100.00
2022-09-28T22:24:46.339Z,100.00
2022-09-28T22:27:16.151Z,100.00
2022-09-28T22:29:43.370Z,100.00
2022-09-28T22:32:11.329Z,100.00
2022-09-28T22:34:38.327Z,100.00
2022-09-28T22:37:08.979Z,100.00
2022-09-28T22:39:38.709Z,100.00
2022-09-28T22:42:11.357Z,100.00
2022-09-28T22:44:42.434Z,100.00
2022-09-28T22:47:17.475Z,100.00
2022-09-28T22:49:44.506Z,100.00
2022-09-28T22:52:11.375Z,100.00
2022-09-28T22:54:45.683Z,100.00
2022-09-28T22:57:17.191Z,100.00
2022-09-28T22:59:50.754Z,100.00
2022-09-28T23:02:20.805Z,100.00
2022-09-28T23:04:56.509Z,100.00
2022-09-28T23:07:26.611Z,100.00
2022-09-28T23:10:03.103Z,100.00
2022-09-28T23:12:30.654Z,100.00
2022-09-28T23:14:57.626Z,100.00
2022-09-28T23:17:27.995Z,100.00
2022-09-28T23:20:00.474Z,100.00
2022-09-28T23:22:30.435Z,100.00
2022-09-28T23:24:57.422Z,100.00
2022-09-28T23:27:27.357Z,100.00
2022-09-28T23:29:57.521Z,100.00
2022-09-28T23:32:31.785Z,100.00
2022-09-28T23:35:00.886Z,100.00
2022-09-28T23:37:39.280Z,100.00
2022-09-28T23:40:12.085Z,100.00
2022-09-28T23:42:42.175Z,100.00
2022-09-28T23:45:10.009Z,100.00
2022-09-28T23:47:42.317Z,100.00
2022-09-28T23:50:21.555Z,100.00
2022-09-28T23:52:54.845Z,100.00
2022-09-28T23:55:29.994Z,100.00
2022-09-28T23:58:00.172Z,100.00
